Time;durP1;ratioP1;P1;durP2;ratioP2;P2;SDS_P1;SDS_P2;PMS_P1;PMS_P2;Temp;Humidity;BMP_temperature;BMP_pressure;BME280_temperature;BME280_humidity;BME280_pressure;Samples;Min_cycle;Max_cycle;Signal;HPM_P1;HPM_P2
2021/05/30 00:02:07;;;;;;;4.60;3.50;;;;;;;8.92;85.98;97699.64;1719721;82;21010;-76
2021/05/30 00:04:33;;;;;;;5.45;3.60;;;;;;;8.85;85.48;97702.46;1723021;83;21041;-76
2021/05/30 00:07:03;;;;;;;6.42;3.50;;;;;;;8.79;85.95;97692.52;1717084;83;21514;-76
2021/05/30 00:09:29;;;;;;;5.20;4.12;;;;;;;8.74;86.13;97699.25;1703304;83;21078;-76
2021/05/30 00:11:55;;;;;;;5.80;3.33;;;;;;;8.69;87.47;97698.04;1718811;83;21463;-76
2021/05/30 00:14:22;;;;;;;4.17;3.70;;;;;;;8.66;85.69;97700.78;1723741;82;21165;-76
2021/05/30 00:16:50;;;;;;;9.18;4.42;;;;;;;8.62;86.13;97700.45;1728236;83;21085;-75
2021/05/30 00:19:18;;;;;;;5.53;3.92;;;;;;;8.60;85.91;97697.44;1725792;83;21606;-76
2021/05/30 00:21:46;;;;;;;9.08;3.72;;;;;;;8.56;85.85;97694.86;1723258;82;21109;-76
2021/05/30 00:24:13;;;;;;;5.12;3.90;;;;;;;8.54;85.89;97694.48;1726713;83;21436;-75
2021/05/30 00:26:39;;;;;;;5.53;3.98;;;;;;;8.49;85.80;97697.23;1724900;82;21512;-76
2021/05/30 00:29:06;;;;;;;4.78;4.00;;;;;;;8.47;85.67;97697.70;1723519;83;21042;-76
2021/05/30 00:31:33;;;;;;;5.05;3.60;;;;;;;8.42;89.62;97692.56;1706766;83;21133;-75
2021/05/30 00:34:00;;;;;;;5.70;4.30;;;;;;;8.41;87.80;97692.59;1694018;84;21058;-75
2021/05/30 00:36:26;;;;;;;5.03;4.05;;;;;;;8.38;88.19;97694.86;1688206;84;21072;-75
2021/05/30 00:38:53;;;;;;;3.75;3.10;;;;;;;8.40;87.95;97692.19;1696521;82;21547;-75
2021/05/30 00:41:19;;;;;;;4.47;3.58;;;;;;;8.41;87.16;97697.88;1745248;82;21052;-75
2021/05/30 00:43:50;;;;;;;8.58;3.90;;;;;;;8.40;87.28;97693.06;1749863;81;21059;-75
2021/05/30 00:46:18;;;;;;;5.47;3.62;;;;;;;8.40;87.73;97696.14;1732222;82;21029;-75
2021/05/30 00:48:45;;;;;;;4.03;3.50;;;;;;;8.42;87.08;97699.16;1726548;83;21546;-75
2021/05/30 00:51:13;;;;;;;4.55;3.10;;;;;;;8.43;87.07;97699.56;1722102;83;21507;-76
2021/05/30 00:53:41;;;;;;;5.17;3.50;;;;;;;8.49;87.56;97702.95;1722938;82;21117;-76
2021/05/30 00:56:13;;;;;;;5.72;3.22;;;;;;;8.54;87.98;97701.09;1698270;84;21074;-76
2021/05/30 00:58:39;;;;;;;4.83;3.20;;;;;;;8.55;87.61;97700.18;1702348;83;21062;-76
2021/05/30 01:01:08;;;;;;;4.95;3.15;;;;;;;8.61;87.72;97697.84;1697370;83;20987;-76
2021/05/30 01:03:36;;;;;;;4.25;3.27;;;;;;;8.66;87.96;97690.66;1711643;83;21618;-75
2021/05/30 01:06:05;;;;;;;3.27;2.92;;;;;;;8.70;87.55;97696.28;1714658;83;21519;-75
2021/05/30 01:08:32;;;;;;;4.75;3.17;;;;;;;8.67;87.86;97697.23;1717478;83;21524;-75
2021/05/30 01:11:00;;;;;;;6.15;3.12;;;;;;;8.63;87.88;97693.41;1717100;83;21022;-75
2021/05/30 01:13:28;;;;;;;4.55;3.62;;;;;;;8.53;88.32;97695.41;1718355;83;21506;-76
2021/05/30 01:15:56;;;;;;;3.65;3.20;;;;;;;8.44;88.36;97688.56;1713054;83;21007;-76
2021/05/30 01:18:25;;;;;;;8.40;3.58;;;;;;;8.38;88.36;97692.22;1713456;83;21066;-75
2021/05/30 01:20:55;;;;;;;5.70;3.72;;;;;;;8.34;88.77;97691.03;1703372;83;21492;-76
2021/05/30 01:23:23;;;;;;;5.75;3.75;;;;;;;8.35;88.26;97694.08;1712768;83;21038;-76
2021/05/30 01:25:50;;;;;;;4.80;3.67;;;;;;;8.36;88.46;97695.36;1709368;83;21561;-76
2021/05/30 01:28:18;;;;;;;4.33;3.62;;;;;;;8.37;88.51;97696.21;1717598;83;21424;-76
2021/05/30 01:30:46;;;;;;;5.22;3.30;;;;;;;8.38;88.20;97692.69;1718328;83;21089;-76
2021/05/30 01:33:13;;;;;;;4.50;3.35;;;;;;;8.35;88.28;97686.16;1717365;83;21018;-76
2021/05/30 01:35:40;;;;;;;4.90;4.15;;;;;;;8.36;88.29;97691.41;1714509;83;21050;-76
2021/05/30 01:38:06;;;;;;;6.72;4.40;;;;;;;8.41;88.15;97693.47;1661751;86;21499;-76
2021/05/30 01:40:33;;;;;;;5.25;3.85;;;;;;;8.46;88.54;97698.62;1655428;85;21047;-76
2021/05/30 01:42:59;;;;;;;5.08;3.87;;;;;;;8.51;88.96;97694.56;1679079;85;21030;-76
2021/05/30 01:45:30;;;;;;;4.60;4.10;;;;;;;8.53;87.92;97688.36;1680817;85;21889;-76
2021/05/30 01:47:56;;;;;;;6.95;3.90;;;;;;;8.56;87.60;97681.66;1690133;83;21015;-76
2021/05/30 01:50:27;;;;;;;4.10;3.60;;;;;;;8.57;87.57;97675.93;1683630;85;21027;-75
2021/05/30 01:52:54;;;;;;;4.95;3.67;;;;;;;8.60;87.86;97682.91;1712341;83;21039;-76
2021/05/30 01:55:44;;;;;;;3.95;3.00;;;;;;;8.60;87.52;97687.75;1716950;83;21146;-76
2021/05/30 01:57:59;;;;;;;4.10;3.67;;;;;;;8.56;87.16;97686.94;1713396;83;21023;-76
2021/05/30 02:00:25;;;;;;;6.30;3.27;;;;;;;8.52;87.64;97697.16;1699624;83;21027;-76
2021/05/30 02:02:55;;;;;;;4.85;3.40;;;;;;;8.50;88.26;97695.44;1712422;84;21011;-76
2021/05/30 02:05:24;;;;;;;5.40;3.90;;;;;;;8.51;88.13;97698.05;1713010;83;21462;-75
2021/05/30 02:07:52;;;;;;;6.03;3.72;;;;;;;8.53;87.57;97698.05;1712491;83;21467;-76
2021/05/30 02:10:22;;;;;;;4.58;3.55;;;;;;;8.54;87.93;97698.01;1706188;84;21415;-77
2021/05/30 02:12:52;;;;;;;3.83;3.42;;;;;;;8.56;88.53;97704.11;1685010;83;21102;-76
2021/05/30 02:15:20;;;;;;;3.62;3.10;;;;;;;8.62;87.92;97699.56;1702667;83;21050;-76
2021/05/30 02:17:47;;;;;;;4.15;3.60;;;;;;;8.70;87.57;97693.64;1698285;83;21030;-76
2021/05/30 02:20:17;;;;;;;4.40;3.65;;;;;;;8.76;87.96;97684.69;1712956;83;21105;-76
2021/05/30 02:22:44;;;;;;;4.33;3.47;;;;;;;8.82;88.06;97695.08;1708532;83;21105;-76
2021/05/30 02:25:12;;;;;;;3.65;2.92;;;;;;;8.81;88.01;97695.52;1716286;83;21053;-76
2021/05/30 02:27:39;;;;;;;3.25;2.95;;;;;;;8.82;87.82;97701.69;1723143;83;21515;-76
2021/05/30 02:30:08;;;;;;;6.90;2.90;;;;;;;8.79;87.90;97703.08;1724500;83;21041;-76
2021/05/30 02:32:34;;;;;;;4.08;2.92;;;;;;;8.75;87.87;97700.98;1706822;83;21050;-77
2021/05/30 02:35:01;;;;;;;3.87;3.20;;;;;;;8.78;88.01;97705.31;1720143;83;21050;-77
2021/05/30 02:37:28;;;;;;;5.70;3.30;;;;;;;8.76;88.16;97706.67;1691663;83;21039;-76
2021/05/30 02:39:54;;;;;;;5.62;3.80;;;;;;;8.77;88.06;97708.43;1702106;83;21042;-76
2021/05/30 02:42:21;;;;;;;5.03;4.15;;;;;;;8.81;88.15;97712.70;1712527;84;21162;-76
2021/05/30 02:44:47;;;;;;;4.22;3.00;;;;;;;8.76;88.15;97710.64;1713797;84;20983;-76
2021/05/30 02:47:14;;;;;;;5.08;4.37;;;;;;;8.78;87.99;97706.20;1714098;83;21016;-76
2021/05/30 02:49:40;;;;;;;3.77;3.33;;;;;;;8.81;87.78;97706.09;1711483;83;21055;-76
2021/05/30 02:52:07;;;;;;;4.67;3.65;;;;;;;8.82;87.84;97712.26;1717807;83;21083;-76
2021/05/30 02:54:33;;;;;;;4.28;3.22;;;;;;;8.86;87.31;97703.34;1717467;82;21072;-76
2021/05/30 02:57:00;;;;;;;6.50;3.40;;;;;;;8.90;87.05;97710.28;1728559;83;21053;-76
2021/05/30 02:59:27;;;;;;;5.10;3.50;;;;;;;8.88;86.75;97708.12;1729084;83;21023;-76
2021/05/30 03:01:53;;;;;;;4.83;3.08;;;;;;;8.85;86.20;97704.26;1702417;82;21014;-75
2021/05/30 03:04:19;;;;;;;3.83;2.65;;;;;;;8.78;86.17;97701.35;1700069;83;21050;-76
2021/05/30 03:06:46;;;;;;;3.20;2.62;;;;;;;8.69;85.87;97713.05;1723222;83;21046;-76
2021/05/30 03:09:12;;;;;;;6.95;3.08;;;;;;;8.56;86.45;97710.71;1705376;83;21010;-76
2021/05/30 03:11:39;;;;;;;5.10;3.37;;;;;;;8.56;86.34;97705.43;1724447;82;21041;-76
2021/05/30 03:14:06;;;;;;;3.72;3.30;;;;;;;8.55;85.98;97705.02;1734490;82;21026;-76
2021/05/30 03:16:32;;;;;;;5.92;3.17;;;;;;;8.53;86.23;97705.97;1717836;82;21027;-76
2021/05/30 03:18:59;;;;;;;3.20;2.90;;;;;;;8.54;86.34;97709.02;1698643;84;21069;-76
2021/05/30 03:21:25;;;;;;;4.58;3.12;;;;;;;8.56;86.28;97710.71;1710750;83;21050;-76
2021/05/30 03:23:52;;;;;;;3.85;3.00;;;;;;;8.60;86.22;97705.36;1726743;83;21539;-76
2021/05/30 03:26:18;;;;;;;4.17;3.10;;;;;;;8.63;86.10;97715.38;1727379;83;20978;-76
2021/05/30 03:28:45;;;;;;;5.42;2.90;;;;;;;8.62;86.00;97714.98;1735770;82;21064;-76
2021/05/30 03:31:11;;;;;;;3.72;2.95;;;;;;;8.62;85.98;97720.70;1718336;82;21545;-76
2021/05/30 03:33:38;;;;;;;4.97;3.15;;;;;;;8.62;86.08;97716.30;1733728;82;21500;-76
2021/05/30 03:36:08;;;;;;;5.35;3.02;;;;;;;8.66;85.64;97726.33;1734940;82;21083;-76
2021/05/30 03:38:33;;;;;;;3.00;2.70;;;;;;;8.68;85.43;97720.09;1738805;82;21433;-76
2021/05/30 03:41:05;;;;;;;6.78;4.45;;;;;;;8.71;84.96;97727.06;1739344;82;21001;-76
2021/05/30 03:43:31;;;;;;;8.80;5.05;;;;;;;8.78;84.78;97722.05;1731737;82;21039;-76
2021/05/30 03:45:58;;;;;;;4.28;2.87;;;;;;;8.83;84.29;97725.88;1723603;83;21204;-76
2021/05/30 03:48:25;;;;;;;4.08;2.45;;;;;;;8.83;84.25;97724.55;1726552;82;21057;-76
2021/05/30 03:50:52;;;;;;;2.60;2.40;;;;;;;8.90;83.94;97731.42;1723467;82;21071;-76
2021/05/30 03:53:21;;;;;;;2.50;2.00;;;;;;;8.98;83.44;97734.70;1726393;82;21054;-76
2021/05/30 03:55:48;;;;;;;3.00;2.10;;;;;;;9.02;82.73;97730.66;1732793;82;21027;-76
2021/05/30 03:58:16;;;;;;;2.22;2.02;;;;;;;9.09;82.31;97720.32;1709513;82;21082;-76
2021/05/30 04:00:43;;;;;;;3.90;2.70;;;;;;;9.15;82.38;97731.19;1721723;82;21032;-76
2021/05/30 04:03:10;;;;;;;4.05;2.45;;;;;;;9.25;82.23;97736.63;1743011;82;21079;-76
2021/05/30 04:05:37;;;;;;;3.55;2.05;;;;;;;9.33;82.17;97729.34;1742112;82;21478;-76
2021/05/30 04:08:04;;;;;;;3.85;2.20;;;;;;;9.38;81.39;97729.20;1744165;82;21127;-76
2021/05/30 04:10:31;;;;;;;2.77;2.55;;;;;;;9.44;81.14;97730.81;1745387;82;21086;-76
2021/05/30 04:12:57;;;;;;;4.22;2.33;;;;;;;9.48;81.23;97735.11;1736639;82;21502;-76
2021/05/30 04:15:25;;;;;;;3.77;2.52;;;;;;;9.55;81.05;97731.35;1735465;82;21053;-75
2021/05/30 04:17:51;;;;;;;2.98;2.52;;;;;;;9.61;80.77;97736.48;1740724;82;21103;-74
2021/05/30 04:20:20;;;;;;;4.53;2.40;;;;;;;9.68;80.52;97727.03;1707365;82;21047;-75
2021/05/30 04:22:48;;;;;;;8.90;2.72;;;;;;;9.67;80.28;97726.16;1724129;82;21465;-75
2021/05/30 04:25:16;;;;;;;3.17;2.62;;;;;;;9.72;80.76;97716.29;1714835;83;21552;-75
2021/05/30 04:27:44;;;;;;;3.75;2.95;;;;;;;9.83;80.37;97726.55;1740689;82;21020;-75
2021/05/30 04:30:13;;;;;;;3.27;2.85;;;;;;;9.97;80.68;97726.59;1746334;81;21056;-74
2021/05/30 04:32:41;;;;;;;4.62;3.27;;;;;;;10.10;80.41;97735.89;1747374;82;21067;-75
2021/05/30 04:35:11;;;;;;;6.95;4.60;;;;;;;10.17;80.31;97726.81;1740443;81;21112;-75
2021/05/30 04:37:37;;;;;;;4.30;3.40;;;;;;;10.25;80.17;97736.28;1736528;81;21038;-75
2021/05/30 04:40:06;;;;;;;3.98;3.20;;;;;;;10.25;80.08;97730.53;1724487;83;21610;-75
2021/05/30 04:42:32;;;;;;;4.75;3.20;;;;;;;10.28;79.98;97732.22;1723499;83;21006;-75
2021/05/30 04:44:59;;;;;;;4.00;3.27;;;;;;;10.30;80.02;97729.08;1735058;82;21043;-75
2021/05/30 04:47:26;;;;;;;4.75;3.50;;;;;;;10.30;80.06;97730.41;1735160;82;21043;-75
2021/05/30 04:49:52;;;;;;;4.00;3.60;;;;;;;10.33;79.92;97728.11;1735873;82;21512;-75
2021/05/30 04:52:19;;;;;;;5.83;3.27;;;;;;;10.39;79.97;97723.92;1736244;82;21008;-75
2021/05/30 04:54:45;;;;;;;4.60;3.70;;;;;;;10.45;80.05;97729.05;1745659;81;21123;-75
2021/05/30 04:57:12;;;;;;;4.53;3.60;;;;;;;10.49;80.10;97731.13;1705035;83;21061;-75
2021/05/30 04:59:38;;;;;;;5.70;3.72;;;;;;;10.51;79.91;97730.16;1729147;82;20998;-75
2021/05/30 05:02:06;;;;;;;5.37;3.75;;;;;;;10.55;80.14;97731.78;1727553;81;21514;-74
2021/05/30 05:04:32;;;;;;;5.35;3.45;;;;;;;10.59;79.60;97728.56;1728099;83;21046;-75
2021/05/30 05:06:59;;;;;;;3.83;3.27;;;;;;;10.58;79.92;97724.19;1728270;83;21089;-75
2021/05/30 05:09:25;;;;;;;3.83;3.40;;;;;;;10.63;79.82;97730.20;1736765;83;21478;-75
2021/05/30 05:11:52;;;;;;;5.25;3.50;;;;;;;10.64;79.80;97730.63;1717680;82;20994;-75
2021/05/30 05:14:18;;;;;;;6.05;3.55;;;;;;;10.76;79.68;97731.97;1716693;82;20990;-75
2021/05/30 05:16:45;;;;;;;4.20;3.60;;;;;;;10.83;79.53;97728.20;1722453;83;21018;-75
2021/05/30 05:19:11;;;;;;;5.15;3.10;;;;;;;10.93;79.65;97730.53;1726290;82;20991;-74
2021/05/30 05:21:38;;;;;;;5.22;3.40;;;;;;;11.04;79.07;97732.81;1722947;83;21573;-75
2021/05/30 05:24:06;;;;;;;3.80;3.17;;;;;;;11.14;78.49;97728.02;1721749;83;21034;-74
2021/05/30 05:26:33;;;;;;;3.60;2.95;;;;;;;11.25;78.84;97730.30;1726564;81;21017;-74
2021/05/30 05:29:00;;;;;;;3.50;2.70;;;;;;;11.31;77.53;97726.08;1726081;82;21030;-74
2021/05/30 05:31:27;;;;;;;4.35;3.17;;;;;;;11.43;77.63;97723.44;1725135;83;20994;-75
2021/05/30 05:33:53;;;;;;;3.77;2.87;;;;;;;11.48;76.75;97733.41;1725272;82;21494;-75
2021/05/30 05:36:20;;;;;;;5.17;3.40;;;;;;;11.36;76.26;97741.37;1667668;84;21065;-74
2021/05/30 05:38:46;;;;;;;4.42;3.20;;;;;;;11.38;76.38;97747.47;1689649;84;21055;-74
2021/05/30 05:41:14;;;;;;;3.62;3.15;;;;;;;11.39;76.50;97741.71;1680579;84;20971;-74
2021/05/30 05:43:41;;;;;;;4.22;3.45;;;;;;;11.47;76.08;97744.95;1696414;84;21541;-75
2021/05/30 05:46:07;;;;;;;4.28;3.05;;;;;;;11.30;76.25;97749.08;1694726;84;20982;-74
2021/05/30 05:48:34;;;;;;;3.72;3.33;;;;;;;11.26;76.47;97753.24;1693652;84;21069;-75
2021/05/30 05:51:01;;;;;;;4.62;3.20;;;;;;;11.23;76.69;97751.56;1691311;84;22488;-75
2021/05/30 05:53:28;;;;;;;5.28;3.30;;;;;;;11.27;76.76;97751.86;1668411;86;21070;-74
2021/05/30 05:55:54;;;;;;;3.87;3.37;;;;;;;11.33;77.03;97747.66;1683102;83;21131;-75
2021/05/30 05:58:21;;;;;;;5.00;3.80;;;;;;;11.42;76.47;97746.92;1707279;84;21486;-74
2021/05/30 06:00:47;;;;;;;3.95;3.17;;;;;;;11.45;76.37;97752.97;1706173;83;21056;-74
2021/05/30 06:03:14;;;;;;;4.05;3.50;;;;;;;11.51;76.04;97743.05;1636889;87;21169;-74
2021/05/30 06:05:40;;;;;;;3.67;3.20;;;;;;;11.59;75.49;97744.96;1636852;86;21063;-74
2021/05/30 06:08:07;;;;;;;4.47;3.10;;;;;;;11.62;75.45;97735.53;1657046;86;21067;-74
2021/05/30 06:10:34;;;;;;;3.47;2.95;;;;;;;11.59;75.12;97743.16;1640736;87;21589;-74
2021/05/30 06:13:08;;;;;;;3.95;3.27;;;;;;;11.59;74.79;97742.31;1712776;84;21016;-74
2021/05/30 06:15:32;;;;;;;4.00;2.98;;;;;;;11.66;75.07;97738.48;1706870;84;21088;-74
2021/05/30 06:18:03;;;;;;;3.52;3.17;;;;;;;11.72;74.77;97735.58;1700269;84;21054;-74
2021/05/30 06:20:27;;;;;;;4.35;2.87;;;;;;;11.75;74.63;97735.92;1701922;82;21553;-74
2021/05/30 06:22:56;;;;;;;4.65;2.80;;;;;;;11.74;73.82;97733.75;1704158;84;21028;-74
2021/05/30 06:25:26;;;;;;;6.37;3.10;;;;;;;11.73;73.02;97742.65;1700872;84;21057;-74
2021/05/30 06:27:55;;;;;;;3.30;3.00;;;;;;;11.73;73.80;97740.44;1693911;84;21061;-74
2021/05/30 06:30:23;;;;;;;3.70;2.70;;;;;;;11.77;72.36;97733.22;1673484;85;21072;-74
2021/05/30 06:32:50;;;;;;;3.20;2.72;;;;;;;11.72;72.41;97741.38;1701144;84;21095;-74
2021/05/30 06:35:17;;;;;;;4.55;2.50;;;;;;;11.80;72.08;97736.64;1702676;84;21049;-74
2021/05/30 06:37:43;;;;;;;3.45;2.80;;;;;;;11.94;72.73;97739.20;1702535;84;21049;-74
2021/05/30 06:40:12;;;;;;;5.45;2.75;;;;;;;12.05;71.92;97733.50;1703311;84;21029;-74
2021/05/30 06:42:38;;;;;;;2.80;2.30;;;;;;;12.14;71.05;97730.48;1703144;84;21029;-74
2021/05/30 06:45:07;;;;;;;2.52;2.22;;;;;;;12.28;71.30;97720.61;1704372;84;21096;-75
2021/05/30 06:47:35;;;;;;;3.12;2.60;;;;;;;12.39;70.42;97734.80;1702647;84;21044;-76
2021/05/30 06:50:02;;;;;;;3.22;2.47;;;;;;;12.46;70.09;97720.80;1703809;82;21061;-75
2021/05/30 06:52:29;;;;;;;2.77;2.08;;;;;;;12.57;69.99;97724.34;1678664;84;22248;-74
2021/05/30 06:54:56;;;;;;;2.83;2.35;;;;;;;12.64;69.81;97728.45;1670751;86;21570;-75
2021/05/30 06:57:23;;;;;;;4.22;3.22;;;;;;;12.78;69.39;97721.20;1699813;83;21032;-74
2021/05/30 06:59:50;;;;;;;2.30;2.10;;;;;;;12.76;66.48;97723.08;1709331;84;21199;-75
2021/05/30 07:02:17;;;;;;;2.85;2.40;;;;;;;12.77;68.07;97717.70;1708747;84;21024;-75
2021/05/30 07:04:44;;;;;;;2.70;2.40;;;;;;;12.85;69.02;97721.81;1708485;84;21590;-75
2021/05/30 07:07:11;;;;;;;2.40;2.20;;;;;;;12.99;67.17;97723.41;1706861;84;21057;-75
2021/05/30 07:09:38;;;;;;;3.02;2.42;;;;;;;13.14;68.44;97721.87;1708010;84;21024;-75
2021/05/30 07:12:06;;;;;;;2.45;2.20;;;;;;;13.20;67.54;97735.35;1704357;84;21088;-74
2021/05/30 07:14:33;;;;;;;2.37;2.17;;;;;;;12.99;66.07;97730.54;1709257;83;21048;-75
2021/05/30 07:16:59;;;;;;;1.80;1.42;;;;;;;12.86;66.86;97736.38;1691949;84;21616;-75
2021/05/30 07:19:26;;;;;;;2.22;1.70;;;;;;;12.84;65.97;97736.05;1638110;86;20995;-75
2021/05/30 07:21:52;;;;;;;2.90;1.82;;;;;;;12.97;67.62;97727.94;1693572;83;21596;-75
2021/05/30 07:24:19;;;;;;;2.33;2.00;;;;;;;13.15;67.28;97724.05;1712179;83;21020;-75
2021/05/30 07:26:45;;;;;;;1.75;1.65;;;;;;;13.18;65.50;97734.57;1708722;83;21043;-75
2021/05/30 07:29:14;;;;;;;1.80;1.70;;;;;;;13.12;62.97;97734.85;1718126;83;21123;-74
2021/05/30 07:31:41;;;;;;;2.72;2.10;;;;;;;13.23;64.14;97747.66;1707739;83;21036;-74
2021/05/30 07:34:07;;;;;;;2.83;1.50;;;;;;;13.18;63.51;97735.90;1728050;83;21051;-74
2021/05/30 07:36:34;;;;;;;2.40;1.60;;;;;;;13.10;63.07;97736.70;1728161;83;21107;-74
2021/05/30 07:39:00;;;;;;;1.80;1.62;;;;;;;13.07;63.61;97730.59;1728965;83;21060;-75
2021/05/30 07:41:27;;;;;;;1.85;1.50;;;;;;;13.11;63.45;97729.11;1717734;83;21497;-74
2021/05/30 07:43:54;;;;;;;1.60;1.50;;;;;;;13.12;64.21;97739.69;1661891;86;21054;-74
2021/05/30 07:46:21;;;;;;;1.42;1.30;;;;;;;13.12;63.61;97739.69;1687400;84;21084;-74
2021/05/30 07:48:47;;;;;;;1.50;1.40;;;;;;;13.05;63.46;97744.41;1711589;84;21028;-75
2021/05/30 07:51:14;;;;;;;1.22;1.12;;;;;;;12.95;63.85;97729.78;1710494;84;21024;-74
2021/05/30 07:53:40;;;;;;;2.72;1.47;;;;;;;13.07;64.82;97736.37;1711515;83;21052;-75
2021/05/30 07:56:07;;;;;;;1.57;1.30;;;;;;;13.29;65.38;97742.08;1709269;83;21024;-75
2021/05/30 07:58:34;;;;;;;1.47;1.10;;;;;;;13.51;62.98;97738.47;1705948;83;21056;-75
2021/05/30 08:01:01;;;;;;;8.73;7.17;;;;;;;13.63;63.23;97737.05;1704959;83;21506;-75
2021/05/30 08:03:27;;;;;;;1.10;1.00;;;;;;;13.84;62.93;97752.50;1703427;84;21009;-75
2021/05/30 08:05:55;;;;;;;1.60;1.20;;;;;;;13.92;61.00;97748.14;1690947;84;21054;-75
2021/05/30 08:08:22;;;;;;;1.10;1.00;;;;;;;13.88;61.16;97751.87;1676192;84;21538;-76
2021/05/30 08:10:49;;;;;;;1.20;1.10;;;;;;;13.88;60.52;97743.89;1680178;85;21117;-73
2021/05/30 08:13:16;;;;;;;3.98;1.10;;;;;;;13.62;61.08;97753.47;1674192;84;21077;-73
2021/05/30 08:15:43;;;;;;;1.25;1.12;;;;;;;13.54;61.44;97755.64;1680973;84;21009;-73
2021/05/30 08:18:10;;;;;;;1.27;1.15;;;;;;;13.42;61.69;97753.88;1673021;84;21061;-72
2021/05/30 08:20:37;;;;;;;1.55;1.00;;;;;;;13.50;62.55;97752.72;1671308;85;20999;-76
2021/05/30 08:23:05;;;;;;;1.30;1.20;;;;;;;13.55;61.53;97754.70;1687704;85;21070;-76
2021/05/30 08:25:31;;;;;;;1.98;1.10;;;;;;;13.64;62.41;97744.97;1707540;84;21026;-76
2021/05/30 08:27:58;;;;;;;1.60;1.10;;;;;;;13.75;62.06;97751.59;1694180;84;21045;-75
2021/05/30 08:30:25;;;;;;;1.85;1.10;;;;;;;13.90;62.72;97751.36;1689760;84;21048;-73
2021/05/30 08:32:52;;;;;;;1.12;1.02;;;;;;;13.95;59.16;97761.33;1693133;84;21062;-77
2021/05/30 08:35:19;;;;;;;2.45;1.10;;;;;;;14.07;61.57;97754.55;1693907;84;21009;-73
2021/05/30 08:37:45;;;;;;;1.60;1.17;;;;;;;14.22;61.73;97758.27;1694367;84;21579;-72
2021/05/30 08:40:16;;;;;;;1.10;0.90;;;;;;;14.35;60.78;97751.86;1690916;84;21061;-76
2021/05/30 08:42:46;;;;;;;1.30;1.20;;;;;;;14.50;60.53;97758.26;1694883;83;21013;-72
2021/05/30 08:45:14;;;;;;;2.37;1.15;;;;;;;14.74;62.05;97754.82;1667737;86;21045;-71
2021/05/30 08:47:41;;;;;;;1.55;1.12;;;;;;;14.85;56.93;97765.45;1673767;85;21030;-73
2021/05/30 08:50:09;;;;;;;1.22;1.12;;;;;;;14.90;59.54;97762.95;1685013;84;21002;-71
2021/05/30 08:52:36;;;;;;;2.85;0.98;;;;;;;14.94;57.07;97771.65;1674971;84;21587;-73
2021/05/30 08:55:06;;;;;;;1.37;1.07;;;;;;;14.88;58.46;97775.52;1669484;85;21056;-76
2021/05/30 08:57:32;;;;;;;2.22;1.00;;;;;;;14.90;58.53;97779.41;1678483;85;21598;-76
2021/05/30 08:59:59;;;;;;;1.02;0.80;;;;;;;14.91;58.17;97774.00;1674666;84;21105;-75
2021/05/30 09:02:26;;;;;;;1.12;0.70;;;;;;;14.91;58.71;97771.34;1672346;83;21121;-78
2021/05/30 09:04:56;;;;;;;1.40;1.20;;;;;;;14.76;56.16;97769.00;1674841;84;21527;-73
2021/05/30 09:07:52;;;;;;;1.52;1.20;;;;;;;14.82;58.67;97770.95;1694921;85;21132;-73
2021/05/30 09:10:23;;;;;;;1.45;1.00;;;;;;;15.03;58.31;97777.01;1678116;84;21078;-73
2021/05/30 09:13:11;;;;;;;1.00;0.90;;;;;;;14.95;58.17;97773.37;1663284;86;21092;-74
2021/05/30 09:18:44;;;;;;;3.30;1.20;;;;;;;15.28;58.33;97773.91;1613118;87;21084;-74
2021/05/30 09:21:14;;;;;;;1.55;1.00;;;;;;;15.36;57.93;97774.84;1680514;84;21102;-74
2021/05/30 09:23:42;;;;;;;1.20;1.10;;;;;;;15.28;57.66;97781.91;1692159;85;21093;-73
2021/05/30 09:26:18;;;;;;;1.20;1.00;;;;;;;15.28;56.84;97772.58;1646595;85;21087;-75
2021/05/30 09:29:07;;;;;;;0.85;0.85;;;;;;;15.07;56.05;97782.55;1653899;85;21341;-73
2021/05/30 09:31:55;;;;;;;1.25;1.00;;;;;;;14.96;55.52;97782.25;1674017;85;21030;-72
2021/05/30 09:34:34;;;;;;;1.10;1.00;;;;;;;15.01;56.40;97790.88;1693629;84;21046;-72
2021/05/30 09:37:03;;;;;;;1.62;1.52;;;;;;;15.00;56.15;97786.50;1689245;84;21022;-73
2021/05/30 09:39:40;;;;;;;1.95;1.22;;;;;;;15.10;57.00;97786.41;1693616;84;21058;-72
2021/05/30 09:42:33;;;;;;;1.50;1.12;;;;;;;15.20;56.98;97789.45;1693639;84;21030;-73
2021/05/30 09:45:03;;;;;;;3.12;1.00;;;;;;;15.27;55.68;97790.87;1663506;84;20999;-73
2021/05/30 09:47:45;;;;;;;9.08;6.58;;;;;;;15.42;55.62;97784.34;1663262;83;21171;-72
2021/05/30 09:50:18;;;;;;;5.22;3.52;;;;;;;15.38;55.12;97786.32;1650696;84;21031;-73
2021/05/30 09:52:51;;;;;;;1.52;1.30;;;;;;;15.32;56.02;97781.28;1668673;84;21088;-73
2021/05/30 09:55:29;;;;;;;2.60;1.30;;;;;;;15.37;55.52;97787.73;1668001;84;21038;-73
2021/05/30 09:58:18;;;;;;;1.22;0.80;;;;;;;15.34;55.36;97775.41;1681266;83;21060;-74
2021/05/30 10:00:44;;;;;;;9.18;6.80;;;;;;;15.49;55.12;97783.55;1699309;82;21077;-73
2021/05/30 10:03:11;;;;;;;1.50;1.10;;;;;;;15.44;53.15;97781.98;1711554;82;21164;-73
2021/05/30 10:05:38;;;;;;;0.88;0.88;;;;;;;15.51;54.34;97781.19;1729961;82;21576;-75
2021/05/30 10:08:06;;;;;;;1.10;1.00;;;;;;;15.15;52.82;97780.82;1730028;82;21004;-77
2021/05/30 10:10:33;;;;;;;1.10;1.00;;;;;;;15.30;53.42;97772.04;1726738;82;21043;-76
2021/05/30 10:13:02;;;;;;;1.10;1.00;;;;;;;15.41;54.53;97782.13;1707834;82;21058;-75
2021/05/30 10:15:29;;;;;;;0.90;0.90;;;;;;;15.53;54.82;97780.62;1722450;82;21090;-75
2021/05/30 10:18:00;;;;;;;1.30;1.10;;;;;;;15.46;53.28;97786.38;1704722;82;21109;-75
2021/05/30 10:20:28;;;;;;;1.07;0.93;;;;;;;15.37;53.92;97783.72;1715996;82;21035;-76
2021/05/30 10:22:57;;;;;;;1.40;1.20;;;;;;;15.47;53.78;97785.42;1738038;82;21549;-76
2021/05/30 10:25:31;;;;;;;3.33;1.20;;;;;;;15.52;53.83;97792.71;1737021;82;21021;-76
2021/05/30 10:28:16;;;;;;;5.47;3.72;;;;;;;15.52;54.79;97786.91;1738234;82;21084;-76
2021/05/30 10:30:50;;;;;;;3.08;1.67;;;;;;;15.37;51.51;97796.58;1733128;82;21016;-73
2021/05/30 10:33:27;;;;;;;1.40;1.10;;;;;;;15.31;51.77;97796.91;1741420;82;21048;-75
2021/05/30 10:35:55;;;;;;;1.42;1.32;;;;;;;15.23;53.98;97795.98;1735014;82;21024;-75
2021/05/30 10:38:38;;;;;;;2.47;1.85;;;;;;;15.35;54.21;97794.48;1734513;82;21016;-75
2021/05/30 10:41:20;;;;;;;5.70;3.98;;;;;;;15.42;53.87;97795.02;1710529;82;21044;-78
2021/05/30 10:43:47;;;;;;;3.62;2.00;;;;;;;15.49;53.45;97796.41;1728840;82;21020;-77
2021/05/30 10:46:15;;;;;;;1.95;1.70;;;;;;;15.66;54.40;97800.02;1687821;83;21034;-79
2021/05/30 10:48:45;;;;;;;4.08;3.20;;;;;;;15.78;52.79;97800.67;1707474;84;21066;-76
2021/05/30 10:51:23;;;;;;;3.05;1.25;;;;;;;15.88;52.27;97794.37;1682564;85;21029;-80
2021/05/30 10:53:53;;;;;;;2.77;1.10;;;;;;;15.88;52.46;97803.72;1674954;85;21121;-78
2021/05/30 10:56:34;;;;;;;1.47;1.17;;;;;;;15.88;51.59;97797.50;1671394;85;21057;-81
2021/05/30 10:59:15;;;;;;;1.40;1.30;;;;;;;16.01;53.10;97794.58;1653929;84;21062;-77
2021/05/30 11:01:44;;;;;;;2.15;1.70;;;;;;;16.16;52.61;97791.55;1660951;85;21184;-79
2021/05/30 11:04:32;;;;;;;1.98;1.32;;;;;;;16.17;51.51;97797.73;1649331;86;21070;-74
2021/05/30 11:07:09;;;;;;;1.32;1.10;;;;;;;16.25;52.46;97785.27;1659874;86;21049;-74
2021/05/30 11:09:59;;;;;;;4.80;2.22;;;;;;;16.36;52.15;97785.06;1704924;83;21058;-72
2021/05/30 11:12:29;;;;;;;3.10;2.10;;;;;;;16.57;51.22;97782.10;1692415;84;21069;-75
2021/05/30 11:15:14;;;;;;;3.95;2.98;;;;;;;16.75;49.10;97776.19;1697587;83;21079;-75
2021/05/30 11:17:54;;;;;;;2.65;2.00;;;;;;;17.05;50.45;97773.14;1698374;84;21068;-78
2021/05/30 11:20:43;;;;;;;5.97;2.33;;;;;;;17.27;47.94;97772.70;1681847;83;21530;-78
2021/05/30 11:23:17;;;;;;;5.15;1.45;;;;;;;17.62;49.91;97767.95;1700149;84;21041;-76
2021/05/30 11:25:55;;;;;;;;;;;;;;;18.02;50.26;97763.25;1704708;83;21070;-79
2021/05/30 11:28:27;;;;;;;3.83;2.83;;;;;;;18.65;47.95;97750.73;1695359;83;20186;-76
2021/05/30 11:31:01;;;;;;;2.05;1.45;;;;;;;19.25;46.18;97751.20;1693607;84;21057;-75
2021/05/30 11:33:31;;;;;;;;;;;;;;;19.71;43.37;97752.48;1697455;84;21097;-82
2021/05/30 11:36:05;;;;;;;2.85;1.30;;;;;;;19.97;45.18;97753.81;1701102;83;20176;-82
2021/05/30 11:38:38;;;;;;;;;;;;;;;19.67;43.84;97756.86;1693178;84;21061;-82
2021/05/30 11:41:14;;;;;;;1.07;0.93;;;;;;;20.13;43.57;97756.25;1699842;84;20191;-83
2021/05/30 11:44:13;;;;;;;2.00;1.20;;;;;;;20.83;41.87;97748.91;1710035;83;21025;-76
2021/05/30 11:46:50;;;;;;;10.45;7.92;;;;;;;21.72;40.86;97733.59;1708015;83;21096;-77
2021/05/30 11:49:21;;;;;;;9.38;7.62;;;;;;;21.80;39.02;97744.27;1702393;84;21014;-77